createdAt,value
2023-05-03T00:00:08.786Z,75967.59
2023-05-03T00:01:44.310Z,75963.63
2023-05-03T00:03:17.478Z,75967.59
2023-05-03T00:04:54.746Z,75967.59
2023-05-03T00:06:28.316Z,75981.44
2023-05-03T00:08:01.571Z,75983.41
2023-05-03T00:09:36.257Z,75989.34
2023-05-03T00:11:09.891Z,75993.28
2023-05-03T00:12:43.828Z,75993.28
2023-05-03T00:14:16.950Z,76001.19
2023-05-03T00:15:50.869Z,76003.16
2023-05-03T00:17:23.704Z,76036.78
2023-05-03T00:18:56.443Z,76009.09
2023-05-03T00:20:29.781Z,76013.06
2023-05-03T00:22:03.132Z,76015.03
2023-05-03T00:23:36.029Z,76015.03
2023-05-03T00:25:09.614Z,76013.06
2023-05-03T00:26:42.570Z,76019.00
2023-05-03T00:28:15.639Z,76019.00
2023-05-03T00:29:52.239Z,76022.94
2023-05-03T00:31:25.171Z,76022.94
2023-05-03T00:32:58.425Z,76046.66
2023-05-03T00:34:31.628Z,76030.84
2023-05-03T00:36:12.151Z,76019.00
2023-05-03T00:37:45.317Z,76030.84
2023-05-03T00:39:18.396Z,76022.94
2023-05-03T00:40:55.359Z,76019.00
2023-05-03T00:42:28.300Z,76022.94
2023-05-03T00:44:01.609Z,76022.94
2023-05-03T00:45:35.240Z,76020.97
2023-05-03T00:47:09.014Z,76019.00
2023-05-03T00:48:42.297Z,76015.03
2023-05-03T00:50:15.646Z,76011.09
2023-05-03T00:51:49.079Z,76019.00
2023-05-03T00:53:24.040Z,76005.16
2023-05-03T00:54:58.287Z,76017.00
2023-05-03T00:56:37.986Z,76022.94
2023-05-03T00:58:22.209Z,76019.00
2023-05-03T00:59:57.185Z,75999.22
2023-05-03T01:01:30.793Z,75949.78
2023-05-03T01:03:04.015Z,75924.09
2023-05-03T01:04:38.059Z,75884.56
2023-05-03T01:06:32.427Z,75852.91
2023-05-03T01:08:58.015Z,75815.34
2023-05-03T01:10:48.186Z,75773.84
2023-05-03T01:12:36.535Z,75752.09
2023-05-03T01:14:33.639Z,75730.34
2023-05-03T01:16:14.453Z,75682.91
2023-05-03T01:17:54.930Z,75645.34
2023-05-03T01:19:40.956Z,75609.75
2023-05-03T01:21:18.881Z,75578.13
2023-05-03T01:23:01.031Z,75574.16
2023-05-03T01:24:38.886Z,75538.59
2023-05-03T01:26:28.770Z,75487.19
2023-05-03T01:28:01.776Z,75479.28
2023-05-03T01:29:34.506Z,75429.84
2023-05-03T01:31:07.533Z,75350.78
2023-05-03T01:32:46.361Z,75303.34
2023-05-03T01:34:31.957Z,75267.75
2023-05-03T01:36:13.662Z,75251.94
2023-05-03T01:37:48.451Z,75236.13
2023-05-03T01:39:29.441Z,75161.00
2023-05-03T01:41:06.947Z,75111.59
2023-05-03T01:42:41.025Z,75117.53
2023-05-03T01:44:15.467Z,75125.44
2023-05-03T01:45:48.831Z,75168.91
2023-05-03T01:47:21.969Z,75117.53
2023-05-03T01:48:54.995Z,75125.44
2023-05-03T01:50:28.265Z,75089.84
2023-05-03T01:52:01.487Z,75034.50
2023-05-03T01:53:34.329Z,75008.81
2023-05-03T01:55:08.448Z,74898.13
2023-05-03T01:56:43.356Z,74860.56
2023-05-03T01:58:16.501Z,74805.22
2023-05-03T01:59:49.324Z,74803.25
2023-05-03T02:01:22.122Z,74821.03
2023-05-03T02:02:55.468Z,74828.94
2023-05-03T02:04:30.485Z,74848.72
2023-05-03T02:06:03.436Z,74817.09
2023-05-03T02:07:36.391Z,74690.59
2023-05-03T02:09:09.508Z,74651.06
2023-05-03T02:10:44.559Z,74651.06
2023-05-03T02:12:17.677Z,74637.22
2023-05-03T02:13:53.412Z,74690.59
2023-05-03T02:15:26.389Z,74613.50
2023-05-03T02:17:00.828Z,74686.63
2023-05-03T02:18:33.906Z,74591.78
2023-05-03T02:20:10.196Z,74589.78
2023-05-03T02:21:43.546Z,74639.19
2023-05-03T02:23:16.761Z,74595.72
2023-05-03T02:24:49.949Z,74643.16
2023-05-03T02:26:23.149Z,74591.78
2023-05-03T02:27:56.421Z,74556.19
2023-05-03T02:29:29.540Z,74528.53
2023-05-03T02:31:02.663Z,74562.13
2023-05-03T02:32:36.379Z,74793.38
2023-05-03T02:34:11.060Z,74791.38
2023-05-03T02:35:45.049Z,74761.75
2023-05-03T02:37:17.962Z,74779.53
2023-05-03T02:38:51.747Z,74793.38
2023-05-03T02:40:24.842Z,74860.56
2023-05-03T02:41:58.755Z,74773.59
2023-05-03T02:43:32.069Z,74670.81
2023-05-03T02:45:05.589Z,74767.66
2023-05-03T02:46:38.904Z,74856.63
2023-05-03T02:48:11.890Z,74836.84
2023-05-03T02:49:44.726Z,74913.94
2023-05-03T02:51:19.437Z,74949.50
2023-05-03T02:52:52.678Z,75030.56
2023-05-03T02:54:33.829Z,75046.38
2023-05-03T02:56:12.665Z,75093.81
2023-05-03T02:57:45.771Z,75139.28
2023-05-03T02:59:23.561Z,75083.94
2023-05-03T03:00:57.244Z,75208.47
2023-05-03T03:02:33.492Z,75115.56
2023-05-03T03:04:07.675Z,75125.44
2023-05-03T03:05:40.927Z,75125.44
2023-05-03T03:07:14.005Z,75105.66
2023-05-03T03:08:46.906Z,75113.56
2023-05-03T03:10:20.062Z,75087.88
2023-05-03T03:11:56.218Z,75081.94
2023-05-03T03:13:29.131Z,75095.78
2023-05-03T03:15:02.066Z,75141.25
2023-05-03T03:16:37.503Z,75143.22
2023-05-03T03:18:10.803Z,75074.03
2023-05-03T03:19:43.897Z,75046.38
2023-05-03T03:21:16.866Z,75070.09
2023-05-03T03:22:49.956Z,75050.31
2023-05-03T03:24:23.180Z,75052.31
2023-05-03T03:25:58.077Z,74931.72
2023-05-03T03:27:32.214Z,74969.28
2023-05-03T03:29:05.652Z,74959.41
2023-05-03T03:30:40.200Z,74894.16
2023-05-03T03:32:27.645Z,74884.28
2023-05-03T03:34:02.062Z,74753.84
2023-05-03T03:35:38.396Z,74811.16
2023-05-03T03:37:12.024Z,74809.19
2023-05-03T03:38:47.356Z,74753.84
2023-05-03T03:40:20.409Z,74787.44
2023-05-03T03:41:57.183Z,74779.53
2023-05-03T03:43:30.963Z,74821.03
2023-05-03T03:45:05.036Z,74712.34
2023-05-03T03:46:38.205Z,74698.50
2023-05-03T03:48:11.808Z,74577.94
2023-05-03T03:49:45.252Z,74645.13
2023-05-03T03:51:18.566Z,74633.28
2023-05-03T03:52:53.846Z,74710.34
2023-05-03T03:54:27.383Z,74635.25
2023-05-03T03:56:00.458Z,74672.81
2023-05-03T03:57:33.380Z,74749.88
2023-05-03T03:59:06.843Z,74740.00
2023-05-03T04:00:40.548Z,74856.63
2023-05-03T04:02:19.555Z,74785.47
2023-05-03T04:03:53.347Z,74741.97
2023-05-03T04:05:26.760Z,74666.88
2023-05-03T04:07:00.580Z,74627.34
2023-05-03T04:08:34.984Z,74664.91
2023-05-03T04:10:08.856Z,74607.59
2023-05-03T04:11:43.813Z,74653.03
2023-05-03T04:13:17.058Z,74662.91
2023-05-03T04:14:52.530Z,74449.47
2023-05-03T04:16:26.140Z,74465.28
2023-05-03T04:17:59.509Z,74433.66
2023-05-03T04:19:33.665Z,74471.22
2023-05-03T04:21:07.072Z,74548.28
2023-05-03T04:22:40.727Z,74564.09
2023-05-03T04:24:17.028Z,74595.72
2023-05-03T04:25:51.423Z,74524.56
2023-05-03T04:27:27.060Z,74633.28
2023-05-03T04:29:00.727Z,74453.41
2023-05-03T04:30:36.115Z,74453.41
2023-05-03T04:32:10.543Z,74536.44
2023-05-03T04:33:44.110Z,74540.38
2023-05-03T04:35:19.488Z,74481.09
2023-05-03T04:36:53.955Z,74544.34
2023-05-03T04:38:28.718Z,74510.75
2023-05-03T04:40:09.799Z,74303.22
2023-05-03T04:41:46.576Z,74477.13
2023-05-03T04:43:19.948Z,74496.91
2023-05-03T04:44:55.044Z,74419.81
2023-05-03T04:46:28.792Z,74390.19
2023-05-03T04:48:02.195Z,74328.91
2023-05-03T04:49:35.988Z,74457.38
2023-05-03T04:51:09.434Z,74378.31
2023-05-03T04:52:42.820Z,74415.88
2023-05-03T04:54:16.686Z,74374.38
2023-05-03T04:55:50.915Z,74362.50
2023-05-03T04:57:24.391Z,74356.59
2023-05-03T04:58:58.236Z,74344.72
2023-05-03T05:00:31.840Z,74483.06
2023-05-03T05:02:10.723Z,74360.53
2023-05-03T05:03:44.386Z,74469.22
2023-05-03T05:05:24.267Z,74400.06
2023-05-03T05:06:57.743Z,74326.94
2023-05-03T05:08:35.188Z,74315.09
2023-05-03T05:10:15.169Z,74417.84
2023-05-03T05:11:48.901Z,74350.66
2023-05-03T05:13:22.308Z,74273.59
2023-05-03T05:14:55.504Z,74417.84
2023-05-03T05:16:28.944Z,74406.00
2023-05-03T05:18:02.571Z,74417.84
2023-05-03T05:19:37.154Z,74429.72
2023-05-03T05:21:10.499Z,74382.28
2023-05-03T05:22:45.231Z,74425.75
2023-05-03T05:24:19.245Z,74402.03
2023-05-03T05:25:54.380Z,74402.03
2023-05-03T05:27:27.838Z,74451.44
2023-05-03T05:29:03.326Z,74415.88
2023-05-03T05:30:36.744Z,74307.19
2023-05-03T05:32:09.973Z,74407.97
2023-05-03T05:33:43.636Z,74374.38
2023-05-03T05:35:19.645Z,74384.25
2023-05-03T05:36:53.583Z,74342.75
2023-05-03T05:38:29.692Z,74281.47
2023-05-03T05:40:08.164Z,74301.25
2023-05-03T05:41:49.801Z,74295.31
2023-05-03T05:43:23.262Z,74358.56
2023-05-03T05:44:57.590Z,74265.69
2023-05-03T05:46:31.479Z,74362.50
2023-05-03T05:48:06.694Z,74315.09
2023-05-03T05:49:40.623Z,74425.75
2023-05-03T05:51:13.942Z,74407.97
2023-05-03T05:52:47.288Z,74469.22
2023-05-03T05:54:21.490Z,74334.84
2023-05-03T05:55:55.612Z,74441.56
2023-05-03T05:57:29.148Z,74342.75
2023-05-03T05:59:05.420Z,74315.09
2023-05-03T06:00:39.582Z,74324.97
2023-05-03T06:02:19.534Z,74281.47
2023-05-03T06:03:53.362Z,74283.47
2023-05-03T06:05:27.094Z,74328.91
2023-05-03T06:07:00.538Z,74184.66
2023-05-03T06:08:34.595Z,74309.16
2023-05-03T06:10:08.591Z,74212.31
2023-05-03T06:11:47.168Z,74228.13
2023-05-03T06:13:21.449Z,74176.75
2023-05-03T06:16:38.433Z,74402.03
2023-05-03T06:18:12.058Z,74404.00
2023-05-03T06:19:45.487Z,74390.19
2023-05-03T06:21:18.806Z,74384.25
2023-05-03T06:22:52.820Z,74338.78
2023-05-03T06:24:31.396Z,74342.75
2023-05-03T06:26:05.094Z,74376.34
2023-05-03T06:27:39.167Z,74366.47
2023-05-03T06:29:13.484Z,74348.69
2023-05-03T06:30:51.101Z,74336.81
2023-05-03T06:32:25.028Z,74330.88
2023-05-03T06:33:59.443Z,74382.28
2023-05-03T06:35:32.887Z,74500.84
2023-05-03T06:37:06.993Z,74469.22
2023-05-03T06:38:41.219Z,74437.63
2023-05-03T06:40:14.805Z,74457.38
2023-05-03T06:41:48.540Z,74528.53
2023-05-03T06:43:23.423Z,74506.78
2023-05-03T06:45:04.350Z,74455.41
2023-05-03T06:46:38.677Z,74449.47
2023-05-03T06:48:12.574Z,74429.72
2023-05-03T06:49:46.006Z,74532.47
2023-05-03T06:51:19.457Z,74575.97
2023-05-03T06:52:55.483Z,74481.09
2023-05-03T06:54:28.573Z,74453.41
2023-05-03T06:56:02.014Z,74443.53
2023-05-03T06:57:43.278Z,74439.59
2023-05-03T06:59:28.540Z,74489.00
2023-05-03T07:01:02.477Z,74528.53
2023-05-03T07:02:35.931Z,74550.25
2023-05-03T07:04:09.598Z,74558.16
2023-05-03T07:05:42.652Z,74544.34
2023-05-03T07:07:16.442Z,74479.13
2023-05-03T07:08:53.283Z,74506.78
2023-05-03T07:10:31.681Z,74490.97
2023-05-03T07:12:05.851Z,74490.97
2023-05-03T07:13:39.518Z,74508.75
2023-05-03T07:15:12.709Z,74461.31
2023-05-03T07:16:46.512Z,74453.41
2023-05-03T07:18:20.081Z,74429.72
2023-05-03T07:19:53.602Z,74406.00
2023-05-03T07:21:27.329Z,74469.22
2023-05-03T07:23:02.152Z,74443.53
2023-05-03T07:24:38.563Z,74512.72
2023-05-03T07:26:11.950Z,74524.56
2023-05-03T07:27:46.120Z,74536.44
2023-05-03T07:29:22.619Z,74490.97
2023-05-03T07:30:55.851Z,74489.00
2023-05-03T07:32:29.215Z,74494.94
2023-05-03T07:34:02.438Z,74485.03
2023-05-03T07:35:36.049Z,74467.25
2023-05-03T07:37:09.354Z,74467.25
2023-05-03T07:38:42.780Z,74485.03
2023-05-03T07:40:16.973Z,74459.34
2023-05-03T07:41:54.315Z,74512.72
2023-05-03T07:43:27.711Z,74490.97
2023-05-03T07:45:01.504Z,74413.91
2023-05-03T07:46:37.301Z,74372.41
2023-05-03T07:48:10.824Z,74350.66
2023-05-03T07:49:44.139Z,74358.56
2023-05-03T07:51:17.334Z,74413.91
2023-05-03T07:52:56.998Z,74406.00
2023-05-03T07:54:36.248Z,74394.13
2023-05-03T07:56:09.461Z,74386.22
2023-05-03T07:57:43.186Z,74344.72
2023-05-03T07:59:16.999Z,74366.47
2023-05-03T08:00:50.640Z,74431.69
2023-05-03T08:02:24.031Z,74378.31
2023-05-03T08:03:58.855Z,74362.50
2023-05-03T08:05:36.198Z,74382.28
2023-05-03T08:07:13.105Z,74382.28
2023-05-03T08:08:46.617Z,74368.44
2023-05-03T08:10:22.841Z,74370.41
2023-05-03T08:11:57.232Z,74382.28
2023-05-03T08:13:30.463Z,74431.69
2023-05-03T08:15:07.352Z,74435.63
2023-05-03T08:16:40.796Z,74398.09
2023-05-03T08:18:13.941Z,74366.47
2023-05-03T08:19:47.876Z,74417.84
2023-05-03T08:21:22.350Z,74370.41
2023-05-03T08:22:57.171Z,74317.06
2023-05-03T08:24:30.768Z,74344.72
2023-05-03T08:26:04.750Z,74350.66
2023-05-03T08:27:37.857Z,74402.03
2023-05-03T08:29:11.596Z,74362.50
2023-05-03T08:30:45.420Z,74299.28
2023-05-03T08:32:22.281Z,74370.41
2023-05-03T08:33:55.722Z,74404.00
2023-05-03T08:35:29.006Z,74364.50
2023-05-03T08:37:04.597Z,74362.50
2023-05-03T08:38:41.608Z,74342.75
2023-05-03T08:40:15.907Z,74271.59
2023-05-03T08:41:49.415Z,74257.78
2023-05-03T08:43:27.775Z,74259.75
2023-05-03T08:45:00.935Z,74224.19
2023-05-03T08:46:38.605Z,74204.41
2023-05-03T08:48:11.843Z,74210.34
2023-05-03T08:49:45.223Z,74198.47
2023-05-03T08:51:19.239Z,74220.22
2023-05-03T08:52:52.515Z,74297.28
2023-05-03T08:54:25.881Z,74287.41
2023-05-03T08:55:58.875Z,74267.66
2023-05-03T08:57:34.082Z,74232.06
2023-05-03T08:59:10.404Z,74220.22
2023-05-03T09:00:45.476Z,74182.69
2023-05-03T09:02:19.214Z,74196.50
2023-05-03T09:03:56.143Z,74180.69
2023-05-03T09:05:34.518Z,74234.06
2023-05-03T09:07:11.506Z,74196.50
2023-05-03T09:08:45.369Z,74133.28
2023-05-03T09:10:27.961Z,74125.38
2023-05-03T09:12:04.221Z,74133.28
2023-05-03T09:13:37.621Z,74127.34
2023-05-03T09:15:22.634Z,74184.66
2023-05-03T09:16:56.546Z,74149.06
2023-05-03T09:18:30.983Z,74174.78
2023-05-03T09:20:04.674Z,74172.78
2023-05-03T09:21:47.562Z,74111.53
2023-05-03T09:23:32.034Z,74085.84
2023-05-03T09:25:05.847Z,74127.34
2023-05-03T09:26:41.237Z,74153.03
2023-05-03T09:28:15.926Z,74156.97
2023-05-03T09:29:49.635Z,74145.13
2023-05-03T09:31:23.209Z,74180.69
2023-05-03T09:32:56.691Z,74164.88
2023-05-03T09:34:30.037Z,74147.09
2023-05-03T09:36:05.820Z,74202.44
2023-05-03T09:37:42.249Z,74141.16
2023-05-03T09:39:20.125Z,74099.66
2023-05-03T09:40:53.287Z,74121.41
2023-05-03T09:42:26.775Z,74212.31
2023-05-03T09:44:03.239Z,74151.06
2023-05-03T09:45:39.669Z,74133.28
2023-05-03T09:47:13.444Z,74192.56
2023-05-03T09:48:47.268Z,74147.09
2023-05-03T09:50:21.249Z,74204.41
2023-05-03T09:51:55.388Z,74178.72
2023-05-03T09:53:32.720Z,74204.41
2023-05-03T09:55:06.710Z,74212.31
2023-05-03T09:56:40.536Z,74216.28
2023-05-03T09:58:15.830Z,74153.03
2023-05-03T09:59:51.716Z,74133.28
2023-05-03T10:01:26.131Z,74200.47
2023-05-03T10:03:02.426Z,74224.19
2023-05-03T10:04:57.314Z,74160.94
2023-05-03T10:06:45.158Z,74133.28
2023-05-03T10:08:46.399Z,74113.50
2023-05-03T10:10:20.930Z,74133.28
2023-05-03T10:11:55.650Z,74141.16
2023-05-03T10:13:30.274Z,74139.19
2023-05-03T10:15:08.328Z,74131.28
2023-05-03T10:16:48.089Z,74145.13
2023-05-03T10:18:24.653Z,74176.75
2023-05-03T10:20:27.678Z,74160.94
2023-05-03T10:22:09.641Z,74141.16
2023-05-03T10:24:11.628Z,74141.16
2023-05-03T10:26:07.490Z,74156.97
2023-05-03T10:27:47.082Z,74133.28
2023-05-03T10:29:35.501Z,74125.38
2023-05-03T10:31:54.754Z,74145.13
2023-05-03T10:33:37.257Z,74149.06
2023-05-03T10:35:17.941Z,74204.41
2023-05-03T10:36:54.415Z,74220.22
2023-05-03T10:38:29.357Z,74218.25
2023-05-03T10:40:14.105Z,74190.56
2023-05-03T10:41:58.979Z,74129.31
2023-05-03T10:43:40.501Z,74133.28
2023-05-03T10:45:32.021Z,74125.38
2023-05-03T10:47:19.016Z,74141.16
2023-05-03T10:49:19.574Z,74137.22
2023-05-03T10:50:53.186Z,74166.88
2023-05-03T10:52:41.736Z,74188.59
2023-05-03T10:54:15.725Z,74133.28
2023-05-03T10:56:11.935Z,74125.38
2023-05-03T10:57:48.515Z,74149.06
2023-05-03T10:59:22.661Z,74123.38
2023-05-03T11:00:56.953Z,74184.66
2023-05-03T11:02:34.252Z,74224.19
2023-05-03T11:04:35.397Z,74182.69
2023-05-03T11:06:09.813Z,74160.94
2023-05-03T11:07:43.170Z,74174.78
2023-05-03T11:09:16.752Z,74180.69
2023-05-03T11:10:57.485Z,74174.78
2023-05-03T11:12:30.688Z,74186.63
2023-05-03T11:14:04.294Z,74216.28
2023-05-03T11:15:37.638Z,74184.66
2023-05-03T11:17:11.201Z,74184.66
2023-05-03T11:18:45.861Z,74176.75
2023-05-03T11:20:19.935Z,74178.72
2023-05-03T11:21:53.495Z,74200.47
2023-05-03T11:23:30.372Z,74196.50
2023-05-03T11:25:04.043Z,74156.97
2023-05-03T11:26:40.527Z,74182.69
2023-05-03T11:28:13.603Z,74184.66
2023-05-03T11:29:50.364Z,74200.47
2023-05-03T11:31:26.505Z,74204.41
2023-05-03T11:33:00.757Z,74236.03
2023-05-03T11:34:34.535Z,74232.06
2023-05-03T11:36:10.197Z,74287.41
2023-05-03T11:37:44.829Z,74287.41
2023-05-03T11:39:21.060Z,74281.47
2023-05-03T11:40:54.440Z,74293.34
2023-05-03T11:42:28.790Z,74287.41
2023-05-03T11:44:14.952Z,74291.38
2023-05-03T11:45:51.789Z,74299.28
2023-05-03T11:47:26.589Z,74281.47
2023-05-03T11:49:00.130Z,74279.50
2023-05-03T11:50:54.664Z,74315.09
2023-05-03T11:52:28.422Z,74263.69
2023-05-03T11:54:12.949Z,74287.41
2023-05-03T11:55:54.957Z,74275.56
2023-05-03T11:57:28.157Z,74243.94
2023-05-03T11:59:01.481Z,74303.22
2023-05-03T12:00:37.043Z,74309.16
2023-05-03T12:02:14.984Z,74277.53
2023-05-03T12:03:50.031Z,74251.84
2023-05-03T12:05:23.880Z,74257.78
2023-05-03T12:06:58.292Z,74261.72
2023-05-03T12:08:36.642Z,74275.56
2023-05-03T12:10:23.594Z,74251.84
2023-05-03T12:12:02.361Z,74255.78
2023-05-03T12:13:39.598Z,74245.91
2023-05-03T12:15:16.328Z,74253.81
2023-05-03T12:16:53.320Z,74236.03
2023-05-03T12:18:29.712Z,74311.13
2023-05-03T12:22:18.234Z,74299.28
2023-05-03T12:23:55.958Z,74283.47
2023-05-03T12:25:34.326Z,74301.25
2023-05-03T12:27:08.826Z,74279.50
2023-05-03T12:28:42.647Z,74279.50
2023-05-03T12:30:17.922Z,74277.53
2023-05-03T12:31:52.197Z,74267.66
2023-05-03T12:33:28.156Z,74281.47
2023-05-03T12:35:02.858Z,74279.50
2023-05-03T12:36:43.972Z,74277.53
2023-05-03T12:38:23.625Z,74271.59
2023-05-03T12:40:11.761Z,74257.78
2023-05-03T12:43:27.268Z,74243.94
2023-05-03T12:45:03.937Z,74251.84
2023-05-03T12:46:38.966Z,74255.78
2023-05-03T12:48:13.814Z,74251.84
2023-05-03T12:49:51.954Z,74291.38
2023-05-03T12:51:32.812Z,74319.03
2023-05-03T12:53:09.319Z,74332.88
2023-05-03T12:54:48.312Z,74307.19
2023-05-03T12:56:24.968Z,74311.13
2023-05-03T12:58:22.972Z,74303.22
2023-05-03T13:00:01.982Z,74303.22
2023-05-03T13:02:40.757Z,74303.22
2023-05-03T13:03:34.346Z,74307.19
2023-05-03T13:05:16.860Z,74326.94
2023-05-03T13:07:00.342Z,74299.28
2023-05-03T13:08:35.330Z,74317.06
2023-05-03T13:11:48.298Z,74342.75
2023-05-03T13:13:22.278Z,74321.00
2023-05-03T13:14:56.131Z,74311.13
2023-05-03T13:16:30.268Z,74330.88
2023-05-03T13:18:07.026Z,74342.75
2023-05-03T13:19:42.390Z,74334.84
2023-05-03T13:21:16.158Z,74344.72
2023-05-03T13:22:49.830Z,74354.59
2023-05-03T13:24:23.192Z,74362.50
2023-05-03T13:25:57.582Z,74366.47
2023-05-03T13:27:31.052Z,74374.38
2023-05-03T13:29:05.412Z,74370.41
2023-05-03T13:30:38.665Z,74378.31
2023-05-03T13:32:12.716Z,74378.31
2023-05-03T13:33:46.531Z,74388.19
2023-05-03T13:35:20.434Z,74386.22
2023-05-03T13:36:53.856Z,74386.22
2023-05-03T13:38:26.884Z,74384.25
2023-05-03T13:40:00.025Z,74398.09
2023-05-03T13:41:34.423Z,74409.94
2023-05-03T13:43:07.946Z,74409.94
2023-05-03T13:44:41.362Z,74413.91
2023-05-03T13:46:15.424Z,74409.94
2023-05-03T13:48:09.560Z,74419.81
2023-05-03T13:49:42.347Z,74427.72
2023-05-03T13:51:15.745Z,74433.66
2023-05-03T13:52:49.026Z,74445.50
2023-05-03T13:54:22.444Z,74451.44
2023-05-03T13:55:56.117Z,74453.41
2023-05-03T13:57:29.308Z,74457.38
2023-05-03T13:59:03.010Z,74465.28
2023-05-03T14:00:36.428Z,74469.22
2023-05-03T14:02:10.554Z,74465.28
2023-05-03T14:03:45.485Z,74469.22
2023-05-03T14:05:20.190Z,74471.22
2023-05-03T14:06:53.468Z,74477.13
2023-05-03T14:08:27.161Z,74489.00
2023-05-03T14:10:02.558Z,74492.94
2023-05-03T14:11:36.514Z,74496.91
2023-05-03T14:13:09.820Z,74502.84
2023-05-03T14:14:43.231Z,74512.72
2023-05-03T14:16:35.953Z,74516.66
2023-05-03T14:18:12.923Z,74528.53
2023-05-03T14:19:46.118Z,74532.47
2023-05-03T14:21:20.033Z,74536.44
2023-05-03T14:22:55.941Z,74538.41
2023-05-03T14:24:29.298Z,74550.25
2023-05-03T14:26:02.874Z,74548.28
2023-05-03T14:27:36.245Z,74544.34
2023-05-03T14:29:09.570Z,74552.25
2023-05-03T14:30:42.697Z,74564.09
2023-05-03T14:32:16.209Z,74572.00
2023-05-03T14:33:49.626Z,74575.97
2023-05-03T14:35:23.711Z,74581.88
2023-05-03T14:36:57.069Z,74611.53
2023-05-03T14:38:33.512Z,74605.59
2023-05-03T14:40:08.074Z,74613.50
2023-05-03T14:41:44.435Z,74615.47
2023-05-03T14:43:18.156Z,74629.31
2023-05-03T14:44:51.441Z,74637.22
2023-05-03T14:46:24.889Z,74647.09
2023-05-03T14:47:58.317Z,74666.88
2023-05-03T14:49:37.620Z,74678.72
2023-05-03T14:51:10.840Z,74702.44
2023-05-03T14:52:44.270Z,74698.50
2023-05-03T14:54:18.188Z,74700.47
2023-05-03T14:55:51.764Z,74714.31
2023-05-03T14:57:24.811Z,74730.13
2023-05-03T14:58:58.628Z,74732.09
2023-05-03T15:00:32.116Z,74747.91
2023-05-03T15:02:05.650Z,74749.88
2023-05-03T15:03:39.200Z,74777.56
2023-05-03T15:05:13.266Z,74773.59
2023-05-03T15:06:46.873Z,74775.56
2023-05-03T15:08:21.750Z,74793.38
2023-05-03T15:09:54.977Z,74805.22
2023-05-03T15:11:28.235Z,74813.13
2023-05-03T15:13:01.828Z,74825.00
2023-05-03T15:14:35.351Z,74844.75
2023-05-03T15:16:08.832Z,74848.72
2023-05-03T15:17:42.252Z,74860.56
2023-05-03T15:19:15.856Z,74872.44
2023-05-03T15:20:49.251Z,74878.34
2023-05-03T15:22:26.586Z,74894.16
2023-05-03T15:23:59.856Z,74913.94
2023-05-03T15:25:33.487Z,74915.91
2023-05-03T15:27:06.686Z,74923.81
2023-05-03T15:28:39.999Z,74939.63
2023-05-03T15:30:15.205Z,74951.50
2023-05-03T15:31:48.634Z,74955.44
2023-05-03T15:33:21.778Z,74963.34
2023-05-03T15:34:55.202Z,74969.28
2023-05-03T15:36:28.336Z,74971.25
2023-05-03T15:38:02.139Z,74967.31
2023-05-03T15:39:35.150Z,74983.13
2023-05-03T15:41:08.516Z,74983.13
2023-05-03T15:42:42.496Z,74991.03
2023-05-03T15:44:16.497Z,74991.03
2023-05-03T15:45:49.523Z,75006.84
2023-05-03T15:47:23.031Z,75004.84
2023-05-03T15:48:55.942Z,75022.66
2023-05-03T15:50:30.450Z,75026.59
2023-05-03T15:52:03.995Z,75042.41
2023-05-03T15:53:37.074Z,75046.38
2023-05-03T15:55:10.335Z,75054.28
2023-05-03T15:56:53.678Z,75058.22
2023-05-03T15:58:31.545Z,75066.13
2023-05-03T16:00:15.277Z,75072.06
2023-05-03T16:01:50.069Z,75089.84
2023-05-03T16:03:24.276Z,75093.81
2023-05-03T16:04:58.124Z,75105.66
2023-05-03T16:06:31.815Z,75115.56
2023-05-03T16:08:07.590Z,75129.38
2023-05-03T16:09:43.486Z,75141.25
2023-05-03T16:11:18.754Z,75141.25
2023-05-03T16:12:52.664Z,75149.16
2023-05-03T16:14:29.520Z,75157.06
2023-05-03T16:16:06.769Z,75168.91
2023-05-03T16:17:50.260Z,75184.72
2023-05-03T16:19:23.890Z,75184.72
2023-05-03T16:20:57.136Z,75188.69
2023-05-03T16:22:30.287Z,75196.59
2023-05-03T16:24:05.131Z,75202.53
2023-05-03T16:25:38.392Z,75204.50
2023-05-03T16:27:11.944Z,75208.47
2023-05-03T16:28:45.038Z,75212.41
2023-05-03T16:30:18.419Z,75228.22
2023-05-03T16:31:51.901Z,75220.31
2023-05-03T16:33:25.260Z,75224.28
2023-05-03T16:34:58.504Z,75224.28
2023-05-03T16:36:33.486Z,75232.19
2023-05-03T16:38:07.620Z,75236.13
2023-05-03T16:39:40.908Z,75244.03
2023-05-03T16:41:14.038Z,75248.00
2023-05-03T16:42:51.038Z,75253.91
2023-05-03T16:44:25.465Z,75257.88
2023-05-03T16:46:00.704Z,75267.75
2023-05-03T16:47:35.349Z,75275.66
2023-05-03T16:49:08.916Z,75283.56
2023-05-03T16:50:44.710Z,75297.41
2023-05-03T16:52:21.336Z,75297.41
2023-05-03T16:53:55.719Z,75309.28
2023-05-03T16:55:29.316Z,75313.22
2023-05-03T16:57:04.647Z,75323.09
2023-05-03T16:58:38.358Z,75329.03
2023-05-03T17:00:12.710Z,75331.00
2023-05-03T17:01:48.913Z,75334.97
2023-05-03T17:03:22.588Z,75348.81
2023-05-03T17:04:59.491Z,75358.69
2023-05-03T17:06:32.957Z,75362.63
2023-05-03T17:08:09.383Z,75372.53
2023-05-03T17:09:42.390Z,75386.38
2023-05-03T17:11:15.644Z,75384.38
2023-05-03T17:12:49.597Z,75396.25
2023-05-03T17:14:22.716Z,75398.22
2023-05-03T17:15:56.347Z,75402.19
2023-05-03T17:17:31.586Z,75412.06
2023-05-03T17:19:04.984Z,75414.03
2023-05-03T17:20:39.272Z,75425.91
2023-05-03T17:22:12.615Z,75435.78
2023-05-03T17:23:47.204Z,75439.75
2023-05-03T17:25:21.580Z,75443.69
2023-05-03T17:26:57.698Z,75437.75
2023-05-03T17:28:32.098Z,75453.56
2023-05-03T17:30:07.468Z,75453.56
2023-05-03T17:31:42.480Z,75469.38
2023-05-03T17:33:23.706Z,75459.50
2023-05-03T17:34:58.093Z,75463.47
2023-05-03T17:36:31.473Z,75459.50
2023-05-03T17:38:05.745Z,75465.44
2023-05-03T17:39:42.871Z,75463.47
2023-05-03T17:41:19.333Z,75485.19
2023-05-03T17:42:53.194Z,75489.16
2023-05-03T17:44:26.690Z,75495.09
2023-05-03T17:46:09.052Z,75504.97
2023-05-03T17:47:42.231Z,75510.91
2023-05-03T17:49:15.774Z,75516.84
2023-05-03T17:50:59.315Z,75526.72
2023-05-03T17:52:34.964Z,75526.72
2023-05-03T17:54:08.253Z,75528.69
2023-05-03T17:55:42.149Z,75540.56
2023-05-03T17:57:15.400Z,75544.50
2023-05-03T17:58:49.081Z,75552.41
2023-05-03T18:00:23.093Z,75556.38
2023-05-03T18:01:57.136Z,75568.22
2023-05-03T18:03:31.856Z,75572.19
2023-05-03T18:05:07.244Z,75584.06
2023-05-03T18:06:40.716Z,75591.97
2023-05-03T18:08:14.531Z,75599.88
2023-05-03T18:09:51.120Z,75603.81
2023-05-03T18:11:27.739Z,75615.69
2023-05-03T18:13:00.831Z,75619.63
2023-05-03T18:14:37.325Z,75627.53
2023-05-03T18:16:14.083Z,75633.47
2023-05-03T18:17:47.568Z,75631.50
2023-05-03T18:19:21.493Z,75635.44
2023-05-03T18:21:05.439Z,75641.38
2023-05-03T18:22:39.243Z,75651.25
2023-05-03T18:24:13.042Z,75655.22
2023-05-03T18:25:50.806Z,75659.16
2023-05-03T18:27:24.767Z,75667.06
2023-05-03T18:29:01.340Z,75674.97
2023-05-03T18:30:34.584Z,75671.03
2023-05-03T18:32:08.162Z,75680.91
2023-05-03T18:33:41.921Z,75680.91
2023-05-03T18:35:15.534Z,75692.78
2023-05-03T18:36:48.693Z,75702.66
2023-05-03T18:38:22.328Z,75704.63
2023-05-03T18:39:55.744Z,75718.47
2023-05-03T18:41:29.211Z,75726.38
2023-05-03T18:43:02.420Z,75730.34
2023-05-03T18:44:35.779Z,75742.19
2023-05-03T18:46:09.714Z,75750.13
2023-05-03T18:47:43.205Z,75756.03
2023-05-03T18:49:16.414Z,75783.72
2023-05-03T18:50:49.970Z,75769.88